sensor_id;sensor_type;location;lat;lon;timestamp;temperature;humidity
7894;DHT22;51343;51.396;6.656;2022-08-19T08:49:12;21.80;99.90
7894;DHT22;51343;51.396;6.656;2022-08-19T08:51:40;21.90;99.90
7894;DHT22;51343;51.396;6.656;2022-08-19T08:54:10;21.90;1.00
7894;DHT22;51343;51.396;6.656;2022-08-19T08:56:38;21.90;1.00
7894;DHT22;51343;51.396;6.656;2022-08-19T08:59:16;22.00;1.00
7894;DHT22;51343;51.396;6.656;2022-08-19T09:01:44;22.20;1.00
7894;DHT22;51343;51.396;6.656;2022-08-19T09:04:14;22.40;1.00
7894;DHT22;51343;51.396;6.656;2022-08-19T09:06:44;22.60;1.00
7894;DHT22;51343;51.396;6.656;2022-08-19T09:09:17;22.60;1.00
7894;DHT22;51343;51.396;6.656;2022-08-19T09:11:55;22.60;1.00
7894;DHT22;51343;51.396;6.656;2022-08-19T09:14:30;22.70;1.00
7894;DHT22;51343;51.396;6.656;2022-08-19T09:16:59;22.90;1.00
7894;DHT22;51343;51.396;6.656;2022-08-19T09:19:31;22.90;1.00
7894;DHT22;51343;51.396;6.656;2022-08-19T09:21:59;23.10;1.00
7894;DHT22;51343;51.396;6.656;2022-08-19T09:24:25;23.10;1.00
7894;DHT22;51343;51.396;6.656;2022-08-19T09:26:53;23.10;1.00
7894;DHT22;51343;51.396;6.656;2022-08-19T09:29:22;23.00;1.00
7894;DHT22;51343;51.396;6.656;2022-08-19T09:31:50;23.00;1.00
7894;DHT22;51343;51.396;6.656;2022-08-19T09:34:18;23.10;1.00
7894;DHT22;51343;51.396;6.656;2022-08-19T09:36:47;23.00;1.00
7894;DHT22;51343;51.396;6.656;2022-08-19T09:39:21;23.10;1.00
7894;DHT22;51343;51.396;6.656;2022-08-19T09:41:49;22.90;1.00
7894;DHT22;51343;51.396;6.656;2022-08-19T09:44:16;22.80;1.00
7894;DHT22;51343;51.396;6.656;2022-08-19T09:46:42;23.00;1.00
7894;DHT22;51343;51.396;6.656;2022-08-19T09:49:09;23.10;1.00
7894;DHT22;51343;51.396;6.656;2022-08-19T09:51:36;23.30;1.00
7894;DHT22;51343;51.396;6.656;2022-08-19T09:54:04;23.50;1.00
7894;DHT22;51343;51.396;6.656;2022-08-19T09:56:31;23.70;1.00
7894;DHT22;51343;51.396;6.656;2022-08-19T09:58:58;23.80;1.00
7894;DHT22;51343;51.396;6.656;2022-08-19T10:01:26;23.70;1.00
7894;DHT22;51343;51.396;6.656;2022-08-19T10:03:54;23.60;1.00
7894;DHT22;51343;51.396;6.656;2022-08-19T10:06:21;23.70;1.00
7894;DHT22;51343;51.396;6.656;2022-08-19T10:08:48;23.70;1.00
7894;DHT22;51343;51.396;6.656;2022-08-19T10:11:19;24.00;1.00
7894;DHT22;51343;51.396;6.656;2022-08-19T10:13:46;24.10;1.00
7894;DHT22;51343;51.396;6.656;2022-08-19T10:16:14;24.20;1.00
7894;DHT22;51343;51.396;6.656;2022-08-19T10:18:41;24.20;1.00
7894;DHT22;51343;51.396;6.656;2022-08-19T10:21:10;24.20;1.00
7894;DHT22;51343;51.396;6.656;2022-08-19T10:23:38;24.50;1.00
7894;DHT22;51343;51.396;6.656;2022-08-19T10:26:06;24.90;1.00
7894;DHT22;51343;51.396;6.656;2022-08-19T10:28:34;25.00;1.00
7894;DHT22;51343;51.396;6.656;2022-08-19T10:31:05;25.50;1.00
7894;DHT22;51343;51.396;6.656;2022-08-19T10:33:33;25.70;1.00
7894;DHT22;51343;51.396;6.656;2022-08-19T10:36:00;25.90;1.00
7894;DHT22;51343;51.396;6.656;2022-08-19T10:38:27;26.10;1.00
7894;DHT22;51343;51.396;6.656;2022-08-19T10:40:54;25.80;1.00
7894;DHT22;51343;51.396;6.656;2022-08-19T10:43:21;26.10;1.00
7894;DHT22;51343;51.396;6.656;2022-08-19T10:45:52;26.50;1.00
7894;DHT22;51343;51.396;6.656;2022-08-19T10:48:21;26.90;1.00
7894;DHT22;51343;51.396;6.656;2022-08-19T10:50:48;26.90;1.00
7894;DHT22;51343;51.396;6.656;2022-08-19T10:53:32;26.70;1.00
7894;DHT22;51343;51.396;6.656;2022-08-19T10:55:59;26.50;1.00
7894;DHT22;51343;51.396;6.656;2022-08-19T10:58:43;26.80;1.00
7894;DHT22;51343;51.396;6.656;2022-08-19T11:01:11;27.50;1.00
7894;DHT22;51343;51.396;6.656;2022-08-19T11:03:38;27.10;1.00
7894;DHT22;51343;51.396;6.656;2022-08-19T11:06:05;26.70;1.00
7894;DHT22;51343;51.396;6.656;2022-08-19T11:08:32;26.00;1.00
7894;DHT22;51343;51.396;6.656;2022-08-19T11:11:00;26.20;1.00
7894;DHT22;51343;51.396;6.656;2022-08-19T11:13:28;26.40;1.00
7894;DHT22;51343;51.396;6.656;2022-08-19T11:15:56;26.90;1.00
7894;DHT22;51343;51.396;6.656;2022-08-19T11:18:24;27.00;1.00
7894;DHT22;51343;51.396;6.656;2022-08-19T11:20:51;27.20;1.00
7894;DHT22;51343;51.396;6.656;2022-08-19T11:23:18;27.30;1.00
7894;DHT22;51343;51.396;6.656;2022-08-19T11:25:44;27.70;1.00
7894;DHT22;51343;51.396;6.656;2022-08-19T11:28:11;28.30;1.00
7894;DHT22;51343;51.396;6.656;2022-08-19T11:30:38;28.20;1.00
7894;DHT22;51343;51.396;6.656;2022-08-19T11:33:05;28.50;1.00
7894;DHT22;51343;51.396;6.656;2022-08-19T11:35:33;28.60;1.00
7894;DHT22;51343;51.396;6.656;2022-08-19T11:38:00;28.60;1.00
7894;DHT22;51343;51.396;6.656;2022-08-19T11:40:28;28.90;1.00
7894;DHT22;51343;51.396;6.656;2022-08-19T11:42:54;29.30;1.00
7894;DHT22;51343;51.396;6.656;2022-08-19T11:45:21;29.00;1.00
7894;DHT22;51343;51.396;6.656;2022-08-19T11:47:48;29.40;1.00
7894;DHT22;51343;51.396;6.656;2022-08-19T11:50:15;29.60;1.00
7894;DHT22;51343;51.396;6.656;2022-08-19T11:52:43;28.90;1.00
7894;DHT22;51343;51.396;6.656;2022-08-19T11:55:10;29.30;1.00
7894;DHT22;51343;51.396;6.656;2022-08-19T11:57:37;29.40;1.00
7894;DHT22;51343;51.396;6.656;2022-08-19T12:00:04;29.70;1.00
7894;DHT22;51343;51.396;6.656;2022-08-19T12:02:32;28.90;1.00
7894;DHT22;51343;51.396;6.656;2022-08-19T12:04:59;29.40;1.00
7894;DHT22;51343;51.396;6.656;2022-08-19T12:07:28;29.50;1.00
7894;DHT22;51343;51.396;6.656;2022-08-19T12:09:57;29.20;1.00
7894;DHT22;51343;51.396;6.656;2022-08-19T12:12:23;29.20;1.00
7894;DHT22;51343;51.396;6.656;2022-08-19T12:14:51;29.70;1.00
7894;DHT22;51343;51.396;6.656;2022-08-19T12:17:22;30.20;1.00
7894;DHT22;51343;51.396;6.656;2022-08-19T12:19:48;30.60;1.00
7894;DHT22;51343;51.396;6.656;2022-08-19T12:22:15;30.20;1.00
7894;DHT22;51343;51.396;6.656;2022-08-19T12:24:43;29.60;1.00
7894;DHT22;51343;51.396;6.656;2022-08-19T12:27:11;30.00;1.00
7894;DHT22;51343;51.396;6.656;2022-08-19T12:29:38;29.90;1.00
7894;DHT22;51343;51.396;6.656;2022-08-19T12:32:06;30.40;1.00
7894;DHT22;51343;51.396;6.656;2022-08-19T12:34:33;30.40;1.00
7894;DHT22;51343;51.396;6.656;2022-08-19T12:37:04;30.40;1.00
7894;DHT22;51343;51.396;6.656;2022-08-19T12:39:37;30.80;1.00
7894;DHT22;51343;51.396;6.656;2022-08-19T12:42:05;30.70;1.00
7894;DHT22;51343;51.396;6.656;2022-08-19T12:44:36;30.20;1.00
7894;DHT22;51343;51.396;6.656;2022-08-19T12:47:05;30.00;1.00
7894;DHT22;51343;51.396;6.656;2022-08-19T12:49:33;29.70;1.00
7894;DHT22;51343;51.396;6.656;2022-08-19T12:52:02;30.20;1.00
7894;DHT22;51343;51.396;6.656;2022-08-19T12:54:31;29.80;1.00
7894;DHT22;51343;51.396;6.656;2022-08-19T12:56:59;30.30;1.00
7894;DHT22;51343;51.396;6.656;2022-08-19T12:59:26;30.40;1.00
7894;DHT22;51343;51.396;6.656;2022-08-19T13:01:56;30.20;1.00
7894;DHT22;51343;51.396;6.656;2022-08-19T13:04:25;30.40;1.00
7894;DHT22;51343;51.396;6.656;2022-08-19T13:06:53;30.30;1.00
7894;DHT22;51343;51.396;6.656;2022-08-19T13:09:20;30.80;1.00
7894;DHT22;51343;51.396;6.656;2022-08-19T13:11:48;31.20;1.00
7894;DHT22;51343;51.396;6.656;2022-08-19T13:14:14;31.00;1.00
7894;DHT22;51343;51.396;6.656;2022-08-19T13:16:42;31.50;1.00
7894;DHT22;51343;51.396;6.656;2022-08-19T13:19:12;31.40;1.00
7894;DHT22;51343;51.396;6.656;2022-08-19T13:21:40;31.10;1.00
7894;DHT22;51343;51.396;6.656;2022-08-19T13:24:08;31.20;1.00
7894;DHT22;51343;51.396;6.656;2022-08-19T13:26:36;31.10;1.00
7894;DHT22;51343;51.396;6.656;2022-08-19T13:29:04;30.50;1.00
7894;DHT22;51343;51.396;6.656;2022-08-19T13:31:49;30.50;1.00
7894;DHT22;51343;51.396;6.656;2022-08-19T13:34:34;30.70;1.00
7894;DHT22;51343;51.396;6.656;2022-08-19T13:37:02;31.10;1.00
7894;DHT22;51343;51.396;6.656;2022-08-19T13:39:29;30.80;1.00
7894;DHT22;51343;51.396;6.656;2022-08-19T13:41:58;30.60;1.00
7894;DHT22;51343;51.396;6.656;2022-08-19T13:44:25;30.90;1.00
7894;DHT22;51343;51.396;6.656;2022-08-19T13:46:54;31.10;1.00
7894;DHT22;51343;51.396;6.656;2022-08-19T13:49:21;31.00;1.00
7894;DHT22;51343;51.396;6.656;2022-08-19T13:51:49;31.00;1.00
7894;DHT22;51343;51.396;6.656;2022-08-19T13:54:16;30.80;1.00
7894;DHT22;51343;51.396;6.656;2022-08-19T13:56:43;30.60;1.00
7894;DHT22;51343;51.396;6.656;2022-08-19T13:59:11;30.80;1.00
7894;DHT22;51343;51.396;6.656;2022-08-19T14:01:38;30.20;1.00
7894;DHT22;51343;51.396;6.656;2022-08-19T14:04:06;30.10;1.00
7894;DHT22;51343;51.396;6.656;2022-08-19T14:06:33;30.40;1.00
7894;DHT22;51343;51.396;6.656;2022-08-19T14:09:01;30.40;1.00
7894;DHT22;51343;51.396;6.656;2022-08-19T14:11:28;30.70;1.00
7894;DHT22;51343;51.396;6.656;2022-08-19T14:13:55;31.20;1.00
7894;DHT22;51343;51.396;6.656;2022-08-19T14:16:22;31.40;1.00
7894;DHT22;51343;51.396;6.656;2022-08-19T14:18:48;31.40;1.00
7894;DHT22;51343;51.396;6.656;2022-08-19T14:21:15;31.80;1.00
7894;DHT22;51343;51.396;6.656;2022-08-19T14:23:43;31.60;1.00
7894;DHT22;51343;51.396;6.656;2022-08-19T14:26:13;31.20;1.00
7894;DHT22;51343;51.396;6.656;2022-08-19T14:28:40;30.50;1.00
7894;DHT22;51343;51.396;6.656;2022-08-19T14:31:07;30.20;1.00
7894;DHT22;51343;51.396;6.656;2022-08-19T14:33:34;30.50;1.00
7894;DHT22;51343;51.396;6.656;2022-08-19T14:36:00;30.40;1.00
7894;DHT22;51343;51.396;6.656;2022-08-19T14:38:27;29.80;1.00
7894;DHT22;51343;51.396;6.656;2022-08-19T14:41:04;29.80;1.00
7894;DHT22;51343;51.396;6.656;2022-08-19T14:43:32;29.60;1.00
7894;DHT22;51343;51.396;6.656;2022-08-19T14:45:59;30.10;1.00
7894;DHT22;51343;51.396;6.656;2022-08-19T14:48:26;30.00;1.00
7894;DHT22;51343;51.396;6.656;2022-08-19T14:50:53;30.00;1.00
7894;DHT22;51343;51.396;6.656;2022-08-19T14:53:19;29.80;1.00
7894;DHT22;51343;51.396;6.656;2022-08-19T14:55:46;30.00;1.00
7894;DHT22;51343;51.396;6.656;2022-08-19T14:58:14;30.60;1.00
7894;DHT22;51343;51.396;6.656;2022-08-19T15:00:42;30.70;1.00
7894;DHT22;51343;51.396;6.656;2022-08-19T15:03:09;30.80;1.00
7894;DHT22;51343;51.396;6.656;2022-08-19T15:05:37;31.20;1.00
7894;DHT22;51343;51.396;6.656;2022-08-19T15:08:04;30.00;1.00
7894;DHT22;51343;51.396;6.656;2022-08-19T15:10:30;29.00;1.00
7894;DHT22;51343;51.396;6.656;2022-08-19T15:12:57;29.20;1.00
7894;DHT22;51343;51.396;6.656;2022-08-19T15:15:24;29.10;1.00
7894;DHT22;51343;51.396;6.656;2022-08-19T15:17:52;29.50;1.00
7894;DHT22;51343;51.396;6.656;2022-08-19T15:20:19;29.50;1.00
7894;DHT22;51343;51.396;6.656;2022-08-19T15:22:48;29.20;1.00
7894;DHT22;51343;51.396;6.656;2022-08-19T15:25:16;29.30;1.00
7894;DHT22;51343;51.396;6.656;2022-08-19T15:27:43;29.00;1.00
7894;DHT22;51343;51.396;6.656;2022-08-19T15:30:11;29.00;1.00
7894;DHT22;51343;51.396;6.656;2022-08-19T15:32:38;28.90;1.00
7894;DHT22;51343;51.396;6.656;2022-08-19T15:35:07;28.80;1.00
7894;DHT22;51343;51.396;6.656;2022-08-19T15:37:34;28.80;1.00
7894;DHT22;51343;51.396;6.656;2022-08-19T15:40:00;28.40;1.00
7894;DHT22;51343;51.396;6.656;2022-08-19T15:42:27;28.50;1.00
7894;DHT22;51343;51.396;6.656;2022-08-19T15:44:54;28.80;1.00
7894;DHT22;51343;51.396;6.656;2022-08-19T15:47:21;28.70;1.00
7894;DHT22;51343;51.396;6.656;2022-08-19T15:49:47;28.30;1.00
7894;DHT22;51343;51.396;6.656;2022-08-19T15:52:15;28.00;1.00
7894;DHT22;51343;51.396;6.656;2022-08-19T15:54:45;28.10;1.00
7894;DHT22;51343;51.396;6.656;2022-08-19T15:57:12;28.20;1.00
7894;DHT22;51343;51.396;6.656;2022-08-19T15:59:56;28.20;1.00
7894;DHT22;51343;51.396;6.656;2022-08-19T16:02:41;27.80;1.00
7894;DHT22;51343;51.396;6.656;2022-08-19T16:05:25;27.60;1.00
7894;DHT22;51343;51.396;6.656;2022-08-19T16:08:11;27.50;1.00
7894;DHT22;51343;51.396;6.656;2022-08-19T16:10:38;27.30;1.00
7894;DHT22;51343;51.396;6.656;2022-08-19T16:13:05;27.20;1.00
7894;DHT22;51343;51.396;6.656;2022-08-19T16:15:32;27.10;1.00
7894;DHT22;51343;51.396;6.656;2022-08-19T16:17:59;26.90;1.00
7894;DHT22;51343;51.396;6.656;2022-08-19T16:20:27;26.80;1.00
7894;DHT22;51343;51.396;6.656;2022-08-19T16:22:54;26.70;1.00
7894;DHT22;51343;51.396;6.656;2022-08-19T16:25:23;26.50;1.00
7894;DHT22;51343;51.396;6.656;2022-08-19T16:27:53;26.50;1.00
7894;DHT22;51343;51.396;6.656;2022-08-19T16:30:20;26.50;1.00
7894;DHT22;51343;51.396;6.656;2022-08-19T16:32:46;26.30;1.00
7894;DHT22;51343;51.396;6.656;2022-08-19T16:35:13;26.10;1.00
7894;DHT22;51343;51.396;6.656;2022-08-19T16:37:40;26.00;1.00
7894;DHT22;51343;51.396;6.656;2022-08-19T16:40:07;25.90;1.00
7894;DHT22;51343;51.396;6.656;2022-08-19T16:42:36;25.80;1.00
7894;DHT22;51343;51.396;6.656;2022-08-19T16:45:04;25.80;1.00
7894;DHT22;51343;51.396;6.656;2022-08-19T16:47:33;25.80;1.00
7894;DHT22;51343;51.396;6.656;2022-08-19T16:49:59;25.80;1.00
7894;DHT22;51343;51.396;6.656;2022-08-19T16:52:26;25.90;1.00
7894;DHT22;51343;51.396;6.656;2022-08-19T16:54:53;25.90;1.00
7894;DHT22;51343;51.396;6.656;2022-08-19T16:57:20;26.10;1.00
7894;DHT22;51343;51.396;6.656;2022-08-19T16:59:49;26.10;1.00
7894;DHT22;51343;51.396;6.656;2022-08-19T17:02:17;26.10;1.00
7894;DHT22;51343;51.396;6.656;2022-08-19T17:04:43;26.10;1.00
7894;DHT22;51343;51.396;6.656;2022-08-19T17:07:10;26.00;1.00
7894;DHT22;51343;51.396;6.656;2022-08-19T17:09:37;25.80;1.00
7894;DHT22;51343;51.396;6.656;2022-08-19T17:12:04;25.80;1.00
7894;DHT22;51343;51.396;6.656;2022-08-19T17:14:31;25.60;1.00
7894;DHT22;51343;51.396;6.656;2022-08-19T17:16:59;25.50;1.00
7894;DHT22;51343;51.396;6.656;2022-08-19T17:19:26;25.30;1.00
7894;DHT22;51343;51.396;6.656;2022-08-19T17:21:52;25.20;1.00
7894;DHT22;51343;51.396;6.656;2022-08-19T17:24:22;25.20;1.00
7894;DHT22;51343;51.396;6.656;2022-08-19T17:26:48;25.10;1.00
7894;DHT22;51343;51.396;6.656;2022-08-19T17:29:15;25.10;1.00
7894;DHT22;51343;51.396;6.656;2022-08-19T17:31:42;25.10;1.00
7894;DHT22;51343;51.396;6.656;2022-08-19T17:34:10;25.10;1.00
7894;DHT22;51343;51.396;6.656;2022-08-19T17:36:36;25.10;1.00
7894;DHT22;51343;51.396;6.656;2022-08-19T17:39:03;25.00;1.00
7894;DHT22;51343;51.396;6.656;2022-08-19T17:41:30;24.90;1.00
7894;DHT22;51343;51.396;6.656;2022-08-19T17:43:58;24.90;1.00
7894;DHT22;51343;51.396;6.656;2022-08-19T17:46:25;24.90;1.00
7894;DHT22;51343;51.396;6.656;2022-08-19T17:48:54;24.90;1.00
7894;DHT22;51343;51.396;6.656;2022-08-19T17:51:24;24.90;1.00
7894;DHT22;51343;51.396;6.656;2022-08-19T17:53:52;24.80;1.00
7894;DHT22;51343;51.396;6.656;2022-08-19T17:56:19;24.70;1.00
7894;DHT22;51343;51.396;6.656;2022-08-19T17:58:46;24.70;1.00
7894;DHT22;51343;51.396;6.656;2022-08-19T18:01:13;24.70;1.00
7894;DHT22;51343;51.396;6.656;2022-08-19T18:03:40;24.60;1.00
7894;DHT22;51343;51.396;6.656;2022-08-19T18:06:07;24.50;1.00
7894;DHT22;51343;51.396;6.656;2022-08-19T18:08:35;24.30;1.00
7894;DHT22;51343;51.396;6.656;2022-08-19T18:11:03;24.20;1.00
7894;DHT22;51343;51.396;6.656;2022-08-19T18:13:30;24.10;1.00
7894;DHT22;51343;51.396;6.656;2022-08-19T18:15:56;24.10;1.00
7894;DHT22;51343;51.396;6.656;2022-08-19T18:18:23;24.20;1.00
7894;DHT22;51343;51.396;6.656;2022-08-19T18:20:51;24.20;1.00
7894;DHT22;51343;51.396;6.656;2022-08-19T18:23:17;24.20;1.00
7894;DHT22;51343;51.396;6.656;2022-08-19T18:25:46;24.00;1.00
7894;DHT22;51343;51.396;6.656;2022-08-19T18:28:12;24.00;1.00
7894;DHT22;51343;51.396;6.656;2022-08-19T18:30:39;24.00;1.00
7894;DHT22;51343;51.396;6.656;2022-08-19T18:33:07;24.00;1.00
7894;DHT22;51343;51.396;6.656;2022-08-19T18:35:40;24.00;1.00
7894;DHT22;51343;51.396;6.656;2022-08-19T18:38:10;24.00;1.00
7894;DHT22;51343;51.396;6.656;2022-08-19T18:40:52;23.90;1.00
7894;DHT22;51343;51.396;6.656;2022-08-19T18:43:36;23.80;1.00
7894;DHT22;51343;51.396;6.656;2022-08-19T18:46:21;23.70;1.00
7894;DHT22;51343;51.396;6.656;2022-08-19T18:49:05;23.80;1.00
7894;DHT22;51343;51.396;6.656;2022-08-19T18:51:33;23.80;1.00
7894;DHT22;51343;51.396;6.656;2022-08-19T18:54:00;23.80;1.00
7894;DHT22;51343;51.396;6.656;2022-08-19T18:56:29;23.80;1.00
7894;DHT22;51343;51.396;6.656;2022-08-19T18:58:58;23.80;1.00
7894;DHT22;51343;51.396;6.656;2022-08-19T19:01:25;23.80;1.00
7894;DHT22;51343;51.396;6.656;2022-08-19T19:03:54;23.70;1.00
7894;DHT22;51343;51.396;6.656;2022-08-19T19:06:21;23.80;1.00
7894;DHT22;51343;51.396;6.656;2022-08-19T19:08:48;23.70;1.00
7894;DHT22;51343;51.396;6.656;2022-08-19T19:11:15;23.70;1.00
7894;DHT22;51343;51.396;6.656;2022-08-19T19:13:45;23.60;1.00
7894;DHT22;51343;51.396;6.656;2022-08-19T19:16:13;23.70;1.00
7894;DHT22;51343;51.396;6.656;2022-08-19T19:18:40;23.60;1.00
7894;DHT22;51343;51.396;6.656;2022-08-19T19:21:07;23.60;1.00
7894;DHT22;51343;51.396;6.656;2022-08-19T19:23:34;23.60;1.00
7894;DHT22;51343;51.396;6.656;2022-08-19T19:26:05;23.50;1.00
7894;DHT22;51343;51.396;6.656;2022-08-19T19:28:35;23.50;1.00
7894;DHT22;51343;51.396;6.656;2022-08-19T19:31:09;23.50;1.00
7894;DHT22;51343;51.396;6.656;2022-08-19T19:33:37;23.50;1.00
7894;DHT22;51343;51.396;6.656;2022-08-19T19:36:04;23.40;1.00
7894;DHT22;51343;51.396;6.656;2022-08-19T19:38:30;23.40;1.00
7894;DHT22;51343;51.396;6.656;2022-08-19T19:40:57;23.40;1.00
7894;DHT22;51343;51.396;6.656;2022-08-19T19:43:25;23.30;1.00
7894;DHT22;51343;51.396;6.656;2022-08-19T19:45:54;23.30;1.00
7894;DHT22;51343;51.396;6.656;2022-08-19T19:48:22;23.20;1.00
7894;DHT22;51343;51.396;6.656;2022-08-19T19:50:49;23.10;1.00
7894;DHT22;51343;51.396;6.656;2022-08-19T19:53:16;23.00;1.00
7894;DHT22;51343;51.396;6.656;2022-08-19T19:55:43;23.00;1.00
7894;DHT22;51343;51.396;6.656;2022-08-19T19:58:11;22.90;1.00
7894;DHT22;51343;51.396;6.656;2022-08-19T20:00:38;22.90;1.00
7894;DHT22;51343;51.396;6.656;2022-08-19T20:03:06;22.90;1.00
7894;DHT22;51343;51.396;6.656;2022-08-19T20:05:36;22.90;1.00
7894;DHT22;51343;51.396;6.656;2022-08-19T20:08:04;22.80;15.90
7894;DHT22;51343;51.396;6.656;2022-08-19T20:10:48;22.70;99.90
7894;DHT22;51343;51.396;6.656;2022-08-19T20:13:17;22.70;99.90
7894;DHT22;51343;51.396;6.656;2022-08-19T20:15:45;22.70;99.90
7894;DHT22;51343;51.396;6.656;2022-08-19T20:18:12;22.60;99.90
7894;DHT22;51343;51.396;6.656;2022-08-19T20:20:42;22.60;99.90
7894;DHT22;51343;51.396;6.656;2022-08-19T20:23:09;22.70;99.90
7894;DHT22;51343;51.396;6.656;2022-08-19T20:25:36;22.60;99.90
7894;DHT22;51343;51.396;6.656;2022-08-19T20:28:05;22.60;99.90
7894;DHT22;51343;51.396;6.656;2022-08-19T20:30:32;22.60;99.90
7894;DHT22;51343;51.396;6.656;2022-08-19T20:33:00;22.60;99.90
7894;DHT22;51343;51.396;6.656;2022-08-19T20:35:31;22.60;1.00
7894;DHT22;51343;51.396;6.656;2022-08-19T20:38:00;22.50;1.00
7894;DHT22;51343;51.396;6.656;2022-08-19T20:40:30;22.50;1.00
7894;DHT22;51343;51.396;6.656;2022-08-19T20:42:59;22.50;1.00
7894;DHT22;51343;51.396;6.656;2022-08-19T20:45:27;22.50;1.00
7894;DHT22;51343;51.396;6.656;2022-08-19T20:47:53;22.50;1.00
7894;DHT22;51343;51.396;6.656;2022-08-19T20:50:21;22.40;1.00
7894;DHT22;51343;51.396;6.656;2022-08-19T20:52:48;22.40;1.00
7894;DHT22;51343;51.396;6.656;2022-08-19T20:55:17;22.40;1.00
7894;DHT22;51343;51.396;6.656;2022-08-19T20:57:47;22.40;1.00
7894;DHT22;51343;51.396;6.656;2022-08-19T21:00:14;22.30;1.00
7894;DHT22;51343;51.396;6.656;2022-08-19T21:02:42;22.30;55.50
7894;DHT22;51343;51.396;6.656;2022-08-19T21:05:09;22.20;99.90
7894;DHT22;51343;51.396;6.656;2022-08-19T21:07:37;22.20;99.90
7894;DHT22;51343;51.396;6.656;2022-08-19T21:10:04;22.10;99.90
7894;DHT22;51343;51.396;6.656;2022-08-19T21:12:34;22.10;99.90
7894;DHT22;51343;51.396;6.656;2022-08-19T21:15:01;22.00;1.00
7894;DHT22;51343;51.396;6.656;2022-08-19T21:17:29;22.00;1.00
7894;DHT22;51343;51.396;6.656;2022-08-19T21:19:56;22.00;1.00
7894;DHT22;51343;51.396;6.656;2022-08-19T21:22:24;22.00;1.00
7894;DHT22;51343;51.396;6.656;2022-08-19T21:24:51;21.90;1.00
7894;DHT22;51343;51.396;6.656;2022-08-19T21:27:18;21.90;1.00
7894;DHT22;51343;51.396;6.656;2022-08-19T21:29:47;21.80;1.00
7894;DHT22;51343;51.396;6.656;2022-08-19T21:32:18;21.80;1.00
7894;DHT22;51343;51.396;6.656;2022-08-19T21:34:45;21.80;1.00
7894;DHT22;51343;51.396;6.656;2022-08-19T21:37:13;21.70;1.00
7894;DHT22;51343;51.396;6.656;2022-08-19T21:39:41;21.70;1.00
7894;DHT22;51343;51.396;6.656;2022-08-19T21:42:10;21.70;1.00
7894;DHT22;51343;51.396;6.656;2022-08-19T21:44:38;21.70;1.00
7894;DHT22;51343;51.396;6.656;2022-08-19T21:47:07;21.70;1.00
7894;DHT22;51343;51.396;6.656;2022-08-19T21:49:34;21.70;1.00
7894;DHT22;51343;51.396;6.656;2022-08-19T21:52:02;21.60;15.30
7894;DHT22;51343;51.396;6.656;2022-08-19T21:54:30;21.60;1.00
7894;DHT22;51343;51.396;6.656;2022-08-19T21:56:57;21.60;1.50
7894;DHT22;51343;51.396;6.656;2022-08-19T21:59:25;21.60;28.00
7894;DHT22;51343;51.396;6.656;2022-08-19T22:01:53;21.50;95.40
7894;DHT22;51343;51.396;6.656;2022-08-19T22:04:22;21.50;99.90
7894;DHT22;51343;51.396;6.656;2022-08-19T22:06:49;21.60;94.20
7894;DHT22;51343;51.396;6.656;2022-08-19T22:09:18;21.60;99.90
7894;DHT22;51343;51.396;6.656;2022-08-19T22:11:45;21.60;99.90
7894;DHT22;51343;51.396;6.656;2022-08-19T22:14:12;21.50;99.90
7894;DHT22;51343;51.396;6.656;2022-08-19T22:16:40;21.50;87.20
7894;DHT22;51343;51.396;6.656;2022-08-19T22:19:08;21.50;99.90
7894;DHT22;51343;51.396;6.656;2022-08-19T22:21:38;21.50;99.90
7894;DHT22;51343;51.396;6.656;2022-08-19T22:24:07;21.50;99.90
7894;DHT22;51343;51.396;6.656;2022-08-19T22:26:34;21.50;99.90
7894;DHT22;51343;51.396;6.656;2022-08-19T22:29:02;21.40;1.00
7894;DHT22;51343;51.396;6.656;2022-08-19T22:31:29;21.40;99.90
7894;DHT22;51343;51.396;6.656;2022-08-19T22:33:57;21.40;99.90
7894;DHT22;51343;51.396;6.656;2022-08-19T22:36:26;21.40;99.90
7894;DHT22;51343;51.396;6.656;2022-08-19T22:38:54;21.40;99.90
7894;DHT22;51343;51.396;6.656;2022-08-19T22:41:22;21.40;1.00
7894;DHT22;51343;51.396;6.656;2022-08-19T22:43:50;21.40;1.00
7894;DHT22;51343;51.396;6.656;2022-08-19T22:46:17;21.40;99.90
7894;DHT22;51343;51.396;6.656;2022-08-19T22:48:45;21.30;99.90
7894;DHT22;51343;51.396;6.656;2022-08-19T22:51:14;21.30;99.90
7894;DHT22;51343;51.396;6.656;2022-08-19T22:54:00;21.40;1.00
7894;DHT22;51343;51.396;6.656;2022-08-19T22:56:29;21.30;1.00
7894;DHT22;51343;51.396;6.656;2022-08-19T22:58:56;21.30;23.40
7894;DHT22;51343;51.396;6.656;2022-08-19T23:01:23;21.30;1.00
7894;DHT22;51343;51.396;6.656;2022-08-19T23:03:50;21.20;1.00
7894;DHT22;51343;51.396;6.656;2022-08-19T23:06:18;21.20;1.00
7894;DHT22;51343;51.396;6.656;2022-08-19T23:08:45;21.20;1.00
7894;DHT22;51343;51.396;6.656;2022-08-19T23:11:13;21.20;1.00
7894;DHT22;51343;51.396;6.656;2022-08-19T23:13:41;21.20;1.00
7894;DHT22;51343;51.396;6.656;2022-08-19T23:16:11;21.10;1.00
7894;DHT22;51343;51.396;6.656;2022-08-19T23:18:38;21.10;1.00
7894;DHT22;51343;51.396;6.656;2022-08-19T23:21:06;21.10;99.90
7894;DHT22;51343;51.396;6.656;2022-08-19T23:23:34;21.10;99.90
7894;DHT22;51343;51.396;6.656;2022-08-19T23:26:02;21.00;99.90
7894;DHT22;51343;51.396;6.656;2022-08-19T23:28:30;21.00;99.90
7894;DHT22;51343;51.396;6.656;2022-08-19T23:31:24;21.10;1.00
7894;DHT22;51343;51.396;6.656;2022-08-19T23:33:50;21.00;1.00
7894;DHT22;51343;51.396;6.656;2022-08-19T23:36:18;21.00;1.00
7894;DHT22;51343;51.396;6.656;2022-08-19T23:38:45;20.80;1.00
7894;DHT22;51343;51.396;6.656;2022-08-19T23:41:13;20.90;1.00
7894;DHT22;51343;51.396;6.656;2022-08-19T23:43:41;20.90;1.00
7894;DHT22;51343;51.396;6.656;2022-08-19T23:46:09;20.80;1.00
7894;DHT22;51343;51.396;6.656;2022-08-19T23:48:35;20.90;1.00
7894;DHT22;51343;51.396;6.656;2022-08-19T23:51:03;20.90;1.00
7894;DHT22;51343;51.396;6.656;2022-08-19T23:53:30;20.80;1.00
7894;DHT22;51343;51.396;6.656;2022-08-19T23:55:57;20.80;1.00
7894;DHT22;51343;51.396;6.656;2022-08-19T23:58:24;20.70;1.00
